createdAt,value
2019-02-21T00:00:43.371Z,6.90
2019-02-21T00:05:48.792Z,5.80
2019-02-21T00:10:53.956Z,6.87
2019-02-21T00:15:59.167Z,6.20
2019-02-21T00:21:04.417Z,6.57
2019-02-21T00:26:09.902Z,6.43
2019-02-21T00:31:15.024Z,7.37
2019-02-21T00:36:20.157Z,5.87
2019-02-21T00:41:25.342Z,7.57
2019-02-21T00:46:30.351Z,6.43
2019-02-21T00:51:35.285Z,7.97
2019-02-21T00:56:40.760Z,9.67
2019-02-21T01:01:45.717Z,7.83
2019-02-21T01:06:50.909Z,6.23
2019-02-21T01:11:56.093Z,7.57
2019-02-21T01:17:01.328Z,7.03
2019-02-21T01:22:06.576Z,6.63
2019-02-21T01:27:11.465Z,6.57
2019-02-21T01:32:16.674Z,7.80
2019-02-21T01:37:21.619Z,11.40
2019-02-21T01:42:26.653Z,9.47
2019-02-21T01:47:31.841Z,10.90
2019-02-21T01:52:37.276Z,7.87
2019-02-21T01:57:42.303Z,7.53
2019-02-21T02:02:47.400Z,8.23
2019-02-21T02:07:52.533Z,7.03
2019-02-21T02:12:57.714Z,7.53
2019-02-21T02:18:02.911Z,7.30
2019-02-21T02:23:07.735Z,6.83
2019-02-21T02:28:12.688Z,9.43
2019-02-21T02:33:17.853Z,7.00
2019-02-21T02:38:23.146Z,7.13
2019-02-21T02:43:28.673Z,7.57
2019-02-21T02:48:33.728Z,8.00
2019-02-21T02:53:39.198Z,7.17
2019-02-21T02:58:45.609Z,8.60
2019-02-21T03:03:51.454Z,7.87
2019-02-21T03:08:56.650Z,8.97
2019-02-21T03:14:01.865Z,11.33
2019-02-21T03:19:07.082Z,12.97
2019-02-21T03:24:11.998Z,10.90
2019-02-21T03:29:17.333Z,10.73
2019-02-21T03:34:22.887Z,12.47
2019-02-21T03:39:27.779Z,12.97
2019-02-21T03:44:32.918Z,13.40
2019-02-21T03:49:38.122Z,12.93
2019-02-21T03:54:43.558Z,11.60
2019-02-21T03:59:48.152Z,10.97
2019-02-21T04:04:53.447Z,13.87
2019-02-21T04:09:58.497Z,12.57
2019-02-21T04:15:04.397Z,13.90
2019-02-21T04:20:09.682Z,13.43
2019-02-21T04:25:15.218Z,12.17
2019-02-21T04:30:20.429Z,13.93
2019-02-21T04:35:25.552Z,12.73
2019-02-21T04:40:30.780Z,14.53
2019-02-21T04:45:35.946Z,13.90
2019-02-21T04:50:40.848Z,12.87
2019-02-21T04:55:46.399Z,14.93
2019-02-21T05:00:51.809Z,14.30
2019-02-21T05:05:56.629Z,13.17
2019-02-21T05:11:01.836Z,13.77
2019-02-21T05:16:06.787Z,12.83
2019-02-21T05:21:11.891Z,13.10
2019-02-21T05:26:22.132Z,11.17
2019-02-21T05:31:45.280Z,11.30
2019-02-21T05:37:18.493Z,11.67
2019-02-21T05:42:45.767Z,11.90
2019-02-21T05:48:07.009Z,12.43
2019-02-21T05:53:30.149Z,9.67
2019-02-21T05:58:48.612Z,11.40
2019-02-21T06:04:08.591Z,10.80
2019-02-21T06:09:27.583Z,11.57
2019-02-21T06:14:39.633Z,11.83
2019-02-21T06:20:10.043Z,10.57
2019-02-21T06:25:20.159Z,10.80
2019-02-21T06:30:44.869Z,12.27
2019-02-21T06:35:50.376Z,10.90
2019-02-21T06:40:56.040Z,10.33
2019-02-21T06:46:01.399Z,12.20
2019-02-21T06:51:06.295Z,11.97
2019-02-21T06:56:11.455Z,14.00
2019-02-21T07:01:26.598Z,12.00
2019-02-21T07:06:31.463Z,13.87
2019-02-21T07:11:29.866Z,14.43
2019-02-21T07:16:37.227Z,15.53
2019-02-21T07:21:41.528Z,15.33
2019-02-21T07:26:46.874Z,13.20
2019-02-21T07:31:52.218Z,13.67
2019-02-21T07:36:57.237Z,14.53
2019-02-21T07:42:02.825Z,16.77
2019-02-21T07:47:07.961Z,15.90
2019-02-21T07:52:12.989Z,18.03
2019-02-21T07:57:18.165Z,20.20
2019-02-21T08:02:23.323Z,16.30
2019-02-21T08:07:28.578Z,19.37
2019-02-21T08:12:33.851Z,19.03
2019-02-21T08:17:38.904Z,14.57
2019-02-21T08:22:44.081Z,15.13
2019-02-21T08:27:49.474Z,18.00
2019-02-21T08:33:19.541Z,18.27
2019-02-21T08:38:24.986Z,20.03
2019-02-21T08:43:30.455Z,19.73
2019-02-21T08:48:35.693Z,19.60
2019-02-21T08:53:40.874Z,16.20
2019-02-21T08:58:46.389Z,17.70
2019-02-21T09:03:51.694Z,19.87
2019-02-21T09:08:56.925Z,18.63
2019-02-21T09:14:02.126Z,15.80
2019-02-21T09:19:07.381Z,17.90
2019-02-21T09:24:13.830Z,16.47
2019-02-21T09:29:19.175Z,16.70
2019-02-21T09:34:24.553Z,20.00
2019-02-21T09:39:30.265Z,18.43
2019-02-21T09:44:35.940Z,15.60
2019-02-21T09:49:41.026Z,15.50
2019-02-21T09:54:47.543Z,19.87
2019-02-21T09:59:53.729Z,19.60
2019-02-21T10:05:05.155Z,20.17
2019-02-21T10:10:08.192Z,17.57
2019-02-21T10:15:13.884Z,19.90
2019-02-21T10:20:20.261Z,19.53
2019-02-21T10:25:26.418Z,16.00
2019-02-21T10:30:31.324Z,18.43
2019-02-21T10:35:36.581Z,22.03
2019-02-21T10:40:41.585Z,21.27
2019-02-21T10:45:48.122Z,22.00
2019-02-21T10:50:53.551Z,21.47
2019-02-21T10:55:58.777Z,19.30
2019-02-21T11:01:04.114Z,20.80
2019-02-21T11:06:09.027Z,22.17
2019-02-21T11:11:17.106Z,22.67
2019-02-21T11:16:21.975Z,17.77
2019-02-21T11:21:27.146Z,20.00
2019-02-21T11:26:32.387Z,24.27
2019-02-21T11:31:37.544Z,22.07
2019-02-21T11:36:42.920Z,22.67
2019-02-21T11:41:48.079Z,24.37
2019-02-21T11:46:53.336Z,19.67
2019-02-21T11:51:58.239Z,21.00
2019-02-21T11:57:03.442Z,22.40
2019-02-21T12:02:08.606Z,19.00
2019-02-21T12:07:13.905Z,18.80
2019-02-21T12:12:19.060Z,24.77
2019-02-21T12:17:24.178Z,19.27
2019-02-21T12:22:29.397Z,18.67
2019-02-21T12:27:34.230Z,21.73
2019-02-21T12:32:39.845Z,17.17
2019-02-21T12:37:45.345Z,17.73
2019-02-21T12:42:50.584Z,19.80
2019-02-21T12:47:56.066Z,18.90
2019-02-21T12:53:01.165Z,20.47
2019-02-21T12:58:06.043Z,19.63
2019-02-21T13:03:11.475Z,16.90
2019-02-21T13:08:16.381Z,15.03
2019-02-21T13:13:21.478Z,15.10
2019-02-21T13:18:27.227Z,17.27
2019-02-21T13:23:32.045Z,14.27
2019-02-21T13:28:37.229Z,14.43
2019-02-21T13:33:42.288Z,11.97
2019-02-21T13:38:47.437Z,15.40
2019-02-21T13:43:52.700Z,13.83
2019-02-21T13:48:57.870Z,12.77
2019-02-21T13:54:03.038Z,16.40
2019-02-21T13:59:08.331Z,14.83
2019-02-21T14:04:13.424Z,16.97
2019-02-21T14:09:18.385Z,12.53
2019-02-21T14:14:23.553Z,11.80
2019-02-21T14:19:28.494Z,15.00
2019-02-21T14:24:36.841Z,13.70
2019-02-21T14:29:40.181Z,11.80
2019-02-21T14:34:45.624Z,13.67
2019-02-21T14:39:50.806Z,14.27
2019-02-21T14:44:55.650Z,14.43
2019-02-21T14:50:00.523Z,15.97
2019-02-21T14:55:06.042Z,14.87
2019-02-21T15:00:17.257Z,13.27
2019-02-21T15:05:22.265Z,14.40
2019-02-21T15:10:27.547Z,14.23
2019-02-21T15:15:32.352Z,15.23
2019-02-21T15:20:37.365Z,18.10
2019-02-21T15:25:42.577Z,16.93
2019-02-21T15:30:47.433Z,16.67
2019-02-21T15:35:52.952Z,17.73
2019-02-21T15:40:58.190Z,16.70
2019-02-21T15:46:03.253Z,15.07
2019-02-21T15:51:08.306Z,13.20
2019-02-21T15:56:13.277Z,15.83
2019-02-21T16:01:18.434Z,13.63
2019-02-21T16:06:23.646Z,14.43
2019-02-21T16:11:29.307Z,14.63
2019-02-21T16:16:34.962Z,15.00
2019-02-21T16:21:40.031Z,13.97
2019-02-21T16:26:49.585Z,16.40
2019-02-21T16:31:54.972Z,14.80
2019-02-21T16:37:02.624Z,14.17
2019-02-21T16:42:11.952Z,11.53
2019-02-21T16:47:17.055Z,16.30
2019-02-21T16:52:22.667Z,15.40
2019-02-21T16:57:28.733Z,13.87
2019-02-21T17:03:06.428Z,13.23
2019-02-21T17:08:11.831Z,15.83
2019-02-21T17:13:17.218Z,14.13
2019-02-21T17:18:22.530Z,17.33
2019-02-21T17:23:27.861Z,15.03
2019-02-21T17:28:33.925Z,13.67
2019-02-21T17:33:42.127Z,15.33
2019-02-21T17:38:47.814Z,17.13
2019-02-21T17:43:53.432Z,15.67
2019-02-21T17:48:59.439Z,14.43
2019-02-21T17:54:05.294Z,15.60
2019-02-21T17:59:11.159Z,14.07
2019-02-21T18:04:16.497Z,13.63
2019-02-21T18:09:22.205Z,15.47
2019-02-21T18:14:27.562Z,14.80
2019-02-21T18:19:34.099Z,16.87
2019-02-21T18:24:39.352Z,16.00
2019-02-21T18:29:45.084Z,13.97
2019-02-21T18:34:50.666Z,18.27
2019-02-21T18:39:56.496Z,14.83
2019-02-21T18:45:02.773Z,17.10
2019-02-21T18:50:09.352Z,15.93
2019-02-21T18:55:15.638Z,16.50
2019-02-21T19:00:22.321Z,17.27
2019-02-21T19:05:35.432Z,17.30
2019-02-21T19:10:34.908Z,18.40
2019-02-21T19:15:40.484Z,18.93
2019-02-21T19:20:46.044Z,20.03
2019-02-21T19:25:51.404Z,21.30
2019-02-21T19:31:05.036Z,20.83
2019-02-21T19:36:10.884Z,18.07
2019-02-21T19:41:16.220Z,20.70
2019-02-21T19:46:22.051Z,18.10
2019-02-21T19:51:27.664Z,20.27
2019-02-21T19:56:33.094Z,19.33
2019-02-21T20:01:39.907Z,19.37
2019-02-21T20:06:45.292Z,17.87
2019-02-21T20:11:50.680Z,21.17
2019-02-21T20:16:56.491Z,19.57
2019-02-21T20:22:02.259Z,22.07
2019-02-21T20:27:07.773Z,19.57
2019-02-21T20:32:13.295Z,17.60
2019-02-21T20:37:18.716Z,21.53
2019-02-21T20:42:24.502Z,19.30
2019-02-21T20:47:30.178Z,21.80
2019-02-21T20:52:35.485Z,18.10
2019-02-21T20:57:41.284Z,20.77
2019-02-21T21:02:47.767Z,19.70
2019-02-21T21:07:53.536Z,27.70
2019-02-21T21:12:58.874Z,25.23
2019-02-21T21:18:04.655Z,18.37
2019-02-21T21:23:09.992Z,18.27
2019-02-21T21:28:15.778Z,17.73
2019-02-21T21:33:21.880Z,19.00
2019-02-21T21:38:27.827Z,19.00
2019-02-21T21:43:33.492Z,18.27
2019-02-21T21:48:38.943Z,19.13
2019-02-21T21:53:44.330Z,19.53
2019-02-21T21:58:49.665Z,21.93
2019-02-21T22:03:55.421Z,21.93
2019-02-21T22:09:04.668Z,21.03
2019-02-21T22:14:08.194Z,22.03
2019-02-21T22:19:13.862Z,20.47
2019-02-21T22:24:19.220Z,17.13
2019-02-21T22:29:24.958Z,15.87
2019-02-21T22:34:31.349Z,19.60
2019-02-21T22:39:37.003Z,17.70
2019-02-21T22:44:42.747Z,17.97
2019-02-21T22:49:48.640Z,19.70
2019-02-21T22:54:54.850Z,21.47
2019-02-21T23:00:00.485Z,19.93
2019-02-21T23:05:47.313Z,18.90
2019-02-21T23:10:53.073Z,18.33
2019-02-21T23:15:58.471Z,18.90
2019-02-21T23:21:04.252Z,16.57
2019-02-21T23:26:10.076Z,17.40
2019-02-21T23:31:16.523Z,17.90
2019-02-21T23:36:22.821Z,15.67
2019-02-21T23:41:28.587Z,16.20
2019-02-21T23:46:33.912Z,15.30
2019-02-21T23:51:39.299Z,17.47
2019-02-21T23:56:45.392Z,15.03
